createdAt,value
2022-09-23T00:01:22.576Z,8.38
2022-09-23T00:03:50.347Z,8.37
2022-09-23T00:06:23.110Z,8.38
2022-09-23T00:08:52.584Z,8.45
2022-09-23T00:11:27.897Z,8.42
2022-09-23T00:13:59.921Z,8.42
2022-09-23T00:16:34.233Z,8.24
2022-09-23T00:19:04.329Z,8.37
2022-09-23T00:21:31.828Z,8.32
2022-09-23T00:23:59.417Z,8.30
2022-09-23T00:26:27.623Z,8.03
2022-09-23T00:28:55.135Z,7.99
2022-09-23T00:31:27.407Z,8.06
2022-09-23T00:34:00.762Z,8.12
2022-09-23T00:36:30.425Z,8.15
2022-09-23T00:38:58.200Z,8.23
2022-09-23T00:41:26.253Z,8.23
2022-09-23T00:49:24.970Z,7.73
2022-09-23T00:52:07.721Z,7.60
2022-09-23T00:54:38.108Z,7.74
2022-09-23T00:57:06.918Z,7.63
2022-09-23T00:59:36.665Z,7.91
2022-09-23T01:02:13.117Z,7.97
2022-09-23T01:04:41.068Z,7.92
2022-09-23T01:07:08.509Z,8.02
2022-09-23T01:09:36.894Z,7.96
2022-09-23T01:30:09.112Z,7.71
2022-09-23T01:33:04.754Z,7.81
2022-09-23T01:44:10.074Z,7.57
2022-09-23T01:52:07.808Z,7.58
2022-09-23T01:57:41.100Z,7.54
2022-09-23T02:00:18.045Z,7.64
2022-09-23T02:03:05.076Z,8.04
2022-09-23T02:05:43.961Z,7.83
2022-09-23T02:08:22.182Z,7.71
2022-09-23T02:10:58.731Z,7.44
2022-09-23T02:13:57.849Z,7.73
2022-09-23T02:16:39.892Z,7.36
2022-09-23T02:19:18.312Z,7.26
2022-09-23T02:21:57.692Z,7.46
2022-09-23T02:24:32.804Z,7.27
2022-09-23T02:33:18.562Z,7.40
2022-09-23T02:36:00.190Z,7.36
2022-09-23T02:38:45.952Z,7.22
2022-09-23T02:44:17.190Z,7.28
2022-09-23T02:46:45.278Z,7.25
2022-09-23T02:51:53.276Z,7.22
2022-09-23T02:54:25.870Z,6.89
2022-09-23T02:56:54.353Z,6.80
2022-09-23T02:59:27.978Z,6.62
2022-09-23T03:02:36.293Z,6.63
2022-09-23T03:22:10.808Z,6.98
2022-09-23T03:24:44.994Z,6.97
2022-09-23T03:27:23.473Z,6.89
2022-09-23T03:29:54.598Z,6.81
2022-09-23T03:32:35.397Z,6.81
2022-09-23T03:35:06.622Z,6.83
2022-09-23T03:37:57.114Z,6.98
2022-09-23T03:40:43.112Z,7.13
2022-09-23T03:43:13.529Z,7.19
2022-09-23T03:45:42.775Z,7.27
2022-09-23T03:48:10.697Z,7.31
2022-09-23T03:50:41.168Z,7.31
2022-09-23T03:53:08.759Z,6.96
2022-09-23T03:55:39.575Z,6.77
2022-09-23T03:58:08.207Z,6.74
2022-09-23T04:00:36.386Z,6.86
2022-09-23T04:03:07.196Z,6.74
2022-09-23T04:05:38.592Z,6.72
2022-09-23T04:08:06.652Z,6.98
2022-09-23T04:10:34.439Z,7.02
2022-09-23T04:13:09.884Z,7.16
2022-09-23T04:15:38.285Z,7.13
2022-09-23T04:18:06.174Z,7.14
2022-09-23T04:20:34.326Z,7.00
2022-09-23T04:23:02.417Z,7.06
2022-09-23T04:25:31.915Z,6.99
2022-09-23T04:28:00.077Z,6.91
2022-09-23T04:30:27.775Z,6.68
2022-09-23T04:32:55.727Z,6.74
2022-09-23T04:35:23.260Z,6.80
2022-09-23T04:37:50.714Z,6.81
2022-09-23T04:40:19.461Z,6.87
2022-09-23T04:42:47.634Z,7.00
2022-09-23T04:45:15.694Z,6.83
2022-09-23T04:47:43.499Z,6.92
2022-09-23T04:50:13.592Z,6.70
2022-09-23T04:52:41.461Z,6.67
2022-09-23T04:55:14.546Z,6.90
2022-09-23T04:57:42.776Z,6.92
2022-09-23T05:00:15.347Z,7.16
2022-09-23T05:02:48.289Z,6.83
2022-09-23T05:05:21.488Z,6.71
2022-09-23T05:07:53.894Z,6.74
2022-09-23T05:10:25.198Z,6.87
2022-09-23T05:12:57.015Z,7.10
2022-09-23T05:15:31.033Z,7.02
2022-09-23T05:18:02.979Z,6.90
2022-09-23T05:20:31.472Z,6.81
2022-09-23T05:23:00.542Z,6.70
2022-09-23T05:25:40.316Z,6.81
2022-09-23T05:28:13.431Z,6.98
2022-09-23T05:30:46.171Z,7.05
2022-09-23T05:33:16.994Z,7.16
2022-09-23T05:35:48.870Z,7.22
2022-09-23T05:38:18.002Z,7.16
2022-09-23T05:40:51.989Z,7.26
2022-09-23T05:43:23.286Z,7.56
2022-09-23T05:46:14.162Z,7.52
2022-09-23T05:48:47.906Z,7.64
2022-09-23T05:51:30.642Z,7.82
2022-09-23T05:54:07.218Z,7.98
2022-09-23T05:56:38.325Z,8.20
2022-09-23T05:59:06.983Z,8.40
2022-09-23T06:01:38.574Z,8.55
2022-09-23T06:04:12.954Z,8.67
2022-09-23T06:06:43.052Z,8.69
2022-09-23T06:09:15.102Z,8.59
2022-09-23T06:11:43.416Z,9.02
2022-09-23T06:14:14.965Z,9.34
2022-09-23T06:16:43.202Z,9.37
2022-09-23T06:19:10.813Z,9.53
2022-09-23T06:21:40.833Z,9.58
2022-09-23T06:24:11.168Z,9.64
2022-09-23T06:26:40.863Z,10.15
2022-09-23T06:29:12.315Z,10.25
2022-09-23T06:31:42.139Z,10.22
2022-09-23T06:34:14.673Z,10.20
2022-09-23T06:36:45.896Z,10.38
2022-09-23T06:39:15.962Z,10.63
2022-09-23T06:41:45.140Z,10.80
2022-09-23T06:44:15.088Z,11.25
2022-09-23T06:46:43.274Z,11.42
2022-09-23T06:49:13.413Z,11.65
2022-09-23T06:51:41.473Z,11.92
2022-09-23T06:54:09.365Z,12.30
2022-09-23T06:56:39.515Z,12.39
2022-09-23T06:59:10.971Z,13.81
2022-09-23T07:01:38.999Z,15.91
2022-09-23T07:04:07.474Z,17.52
2022-09-23T07:06:36.105Z,18.77
2022-09-23T07:09:07.218Z,19.64
2022-09-23T07:11:34.876Z,21.04
2022-09-23T07:14:06.237Z,22.45
2022-09-23T07:16:36.655Z,22.50
2022-09-23T07:19:08.643Z,22.45
2022-09-23T07:21:36.865Z,21.96
2022-09-23T07:24:05.477Z,22.56
2022-09-23T07:26:34.681Z,24.06
2022-09-23T07:29:05.069Z,23.46
2022-09-23T07:31:40.033Z,24.51
2022-09-23T07:34:11.579Z,23.77
2022-09-23T07:36:41.053Z,24.60
2022-09-23T07:39:12.786Z,24.89
2022-09-23T07:41:44.744Z,25.51
2022-09-23T07:44:12.871Z,27.30
2022-09-23T07:46:41.086Z,29.06
2022-09-23T07:49:11.675Z,30.19
2022-09-23T07:51:45.930Z,30.16
2022-09-23T07:54:17.070Z,29.95
2022-09-23T07:56:47.450Z,28.06
2022-09-23T07:59:19.714Z,27.86
2022-09-23T08:01:54.038Z,27.39
2022-09-23T08:04:29.185Z,26.76
2022-09-23T08:07:04.726Z,26.50
2022-09-23T08:09:42.797Z,25.49
2022-09-23T08:12:16.572Z,25.32
2022-09-23T08:14:44.890Z,25.20
2022-09-23T08:17:16.076Z,24.77
2022-09-23T08:19:43.594Z,24.45
2022-09-23T08:22:12.257Z,24.65
2022-09-23T08:24:39.891Z,23.98
2022-09-23T08:27:07.312Z,23.99
2022-09-23T08:29:34.922Z,24.27
2022-09-23T08:32:02.678Z,24.59
2022-09-23T08:34:30.010Z,24.76
2022-09-23T08:36:57.550Z,24.06
2022-09-23T08:39:24.915Z,24.57
2022-09-23T08:50:18.846Z,26.91
2022-09-23T08:53:11.754Z,26.46
2022-09-23T08:55:48.536Z,27.30
2022-09-23T09:04:05.769Z,26.91
2022-09-23T09:06:52.907Z,27.49
2022-09-23T09:09:36.685Z,28.44
2022-09-23T09:15:29.262Z,28.87
2022-09-23T09:23:34.999Z,27.88
2022-09-23T09:26:04.477Z,28.43
2022-09-23T09:28:49.181Z,29.43
2022-09-23T09:37:25.236Z,28.07
2022-09-23T09:39:52.785Z,27.99
2022-09-23T09:42:35.083Z,28.98
2022-09-23T09:45:57.532Z,29.68
2022-09-23T09:48:59.977Z,30.24
2022-09-23T09:51:29.291Z,30.95
2022-09-23T09:54:23.151Z,32.00
2022-09-23T09:56:52.751Z,33.10
2022-09-23T09:59:29.958Z,33.57
2022-09-23T10:05:03.882Z,35.10
2022-09-23T10:07:34.153Z,35.05
2022-09-23T10:10:33.704Z,36.09
2022-09-23T10:13:17.650Z,37.50
2022-09-23T10:15:46.014Z,38.23
2022-09-23T10:21:18.003Z,36.50
2022-09-23T10:23:52.552Z,37.01
2022-09-23T10:26:50.678Z,37.79
2022-09-23T10:47:04.913Z,39.08
2022-09-23T10:50:03.525Z,40.57
2022-09-23T11:11:19.845Z,39.52
2022-09-23T11:36:42.625Z,39.63
2022-09-23T11:39:20.550Z,40.13
2022-09-23T11:41:52.558Z,40.81
2022-09-23T11:44:34.059Z,40.83
2022-09-23T11:49:59.332Z,39.17
2022-09-23T11:52:41.446Z,38.16
2022-09-23T11:55:23.352Z,38.11
2022-09-23T12:00:49.306Z,39.42
2022-09-23T12:06:22.857Z,39.02
2022-09-23T12:09:02.881Z,38.50
2022-09-23T12:12:05.212Z,38.86
2022-09-23T12:28:37.658Z,37.98
2022-09-23T12:31:13.053Z,38.25
2022-09-23T12:33:44.515Z,36.42
2022-09-23T12:36:12.650Z,37.04
2022-09-23T12:46:48.428Z,35.25
2022-09-23T12:54:51.572Z,34.45
2022-09-23T13:05:46.626Z,30.98
2022-09-23T13:08:25.073Z,31.92
2022-09-23T13:11:01.155Z,31.65
2022-09-23T13:16:38.530Z,32.19
2022-09-23T13:24:48.807Z,32.36
2022-09-23T13:30:07.757Z,31.78
2022-09-23T13:32:45.374Z,31.32
2022-09-23T13:37:51.437Z,30.96
2022-09-23T13:40:29.920Z,30.51
2022-09-23T13:45:43.481Z,29.45
2022-09-23T13:48:15.587Z,29.45
2022-09-23T13:50:50.658Z,29.08
2022-09-23T13:53:31.496Z,28.26
2022-09-23T13:56:18.468Z,28.02
2022-09-23T13:58:45.775Z,27.71
2022-09-23T14:01:35.256Z,27.96
2022-09-23T14:04:02.874Z,28.07
2022-09-23T14:06:32.088Z,28.21
2022-09-23T14:09:02.665Z,27.81
2022-09-23T14:11:35.328Z,27.01
2022-09-23T14:14:07.358Z,26.00
2022-09-23T14:16:40.813Z,24.91
2022-09-23T14:19:18.753Z,25.04
2022-09-23T14:21:53.570Z,24.69
2022-09-23T14:24:32.550Z,25.40
2022-09-23T14:27:16.393Z,25.59
2022-09-23T14:29:48.167Z,25.80
2022-09-23T14:32:24.456Z,25.50
2022-09-23T14:40:32.778Z,24.79
2022-09-23T14:43:25.936Z,24.27
2022-09-23T14:45:58.101Z,23.85
2022-09-23T14:48:33.299Z,24.11
2022-09-23T14:51:10.790Z,24.52
2022-09-23T14:53:46.457Z,24.54
2022-09-23T14:59:00.747Z,24.62
2022-09-23T15:07:17.828Z,24.59
2022-09-23T15:09:46.274Z,24.86
2022-09-23T15:14:56.956Z,25.41
2022-09-23T15:20:08.697Z,25.00
2022-09-23T15:22:55.685Z,24.38
2022-09-23T15:25:43.348Z,24.06
2022-09-23T15:30:50.767Z,22.85
2022-09-23T15:33:18.545Z,22.78
2022-09-23T15:35:49.455Z,22.77
2022-09-23T15:38:18.022Z,23.10
2022-09-23T15:40:45.430Z,22.78
2022-09-23T15:43:22.505Z,22.82
2022-09-23T15:46:06.831Z,22.63
2022-09-23T15:48:56.391Z,22.85
2022-09-23T15:51:28.378Z,22.47
2022-09-23T15:53:56.382Z,22.66
2022-09-23T15:56:27.079Z,22.82
2022-09-23T15:58:54.704Z,22.78
2022-09-23T16:01:35.986Z,22.57
2022-09-23T16:04:05.020Z,22.33
2022-09-23T16:06:36.001Z,22.28
2022-09-23T16:09:04.037Z,22.32
2022-09-23T16:11:32.757Z,22.12
2022-09-23T16:14:00.799Z,22.02
2022-09-23T16:16:28.608Z,21.99
2022-09-23T16:18:56.011Z,22.11
2022-09-23T16:21:28.696Z,21.81
2022-09-23T16:23:59.157Z,21.71
2022-09-23T16:26:36.893Z,21.78
2022-09-23T16:29:04.531Z,21.86
2022-09-23T16:31:32.274Z,21.67
2022-09-23T16:34:02.492Z,21.42
2022-09-23T16:39:12.857Z,21.02
2022-09-23T16:41:42.830Z,20.87
2022-09-23T16:44:12.583Z,20.88
2022-09-23T16:46:42.935Z,20.71
2022-09-23T16:49:12.140Z,20.36
2022-09-23T16:51:40.865Z,20.14
2022-09-23T16:54:12.255Z,20.12
2022-09-23T16:56:44.372Z,20.09
2022-09-23T16:59:15.939Z,19.66
2022-09-23T17:02:08.316Z,19.73
2022-09-23T17:04:36.019Z,19.64
2022-09-23T17:07:03.410Z,19.58
2022-09-23T17:09:32.064Z,19.58
2022-09-23T17:12:28.667Z,19.14
2022-09-23T17:15:09.707Z,19.19
2022-09-23T17:17:41.611Z,19.23
2022-09-23T17:20:29.368Z,19.21
2022-09-23T17:22:56.631Z,19.24
2022-09-23T17:25:24.781Z,19.11
2022-09-23T17:27:53.032Z,18.87
2022-09-23T17:30:20.478Z,18.85
2022-09-23T17:32:48.634Z,18.63
2022-09-23T17:35:17.130Z,18.71
2022-09-23T17:37:46.437Z,18.93
2022-09-23T17:40:14.370Z,18.83
2022-09-23T17:42:42.536Z,18.80
2022-09-23T17:45:12.523Z,18.70
2022-09-23T17:47:41.896Z,18.51
2022-09-23T17:50:09.835Z,18.43
2022-09-23T17:52:37.243Z,18.33
2022-09-23T17:55:05.547Z,18.27
2022-09-23T17:57:32.908Z,18.18
2022-09-23T18:00:00.671Z,18.11
2022-09-23T18:02:28.517Z,18.12
2022-09-23T18:04:56.063Z,18.08
2022-09-23T18:07:23.634Z,17.89
2022-09-23T18:09:50.976Z,17.71
2022-09-23T18:12:18.407Z,17.76
2022-09-23T18:14:54.368Z,17.73
2022-09-23T18:17:21.800Z,17.52
2022-09-23T18:19:49.619Z,17.43
2022-09-23T18:22:17.087Z,17.47
2022-09-23T18:24:44.704Z,17.37
2022-09-23T18:27:12.412Z,17.27
2022-09-23T18:29:39.721Z,17.17
2022-09-23T18:32:09.926Z,17.03
2022-09-23T18:34:39.454Z,16.63
2022-09-23T18:37:15.379Z,16.54
2022-09-23T18:39:44.694Z,16.52
2022-09-23T18:42:12.388Z,16.39
2022-09-23T18:44:40.154Z,16.50
2022-09-23T18:47:07.470Z,16.50
2022-09-23T18:49:54.686Z,16.48
2022-09-23T18:52:21.993Z,16.89
2022-09-23T18:54:54.364Z,16.99
2022-09-23T18:57:22.630Z,16.71
2022-09-23T18:59:50.425Z,16.75
2022-09-23T19:02:18.058Z,16.57
2022-09-23T19:04:45.838Z,16.69
2022-09-23T19:07:13.290Z,16.71
2022-09-23T19:09:45.049Z,16.65
2022-09-23T19:12:27.453Z,16.66
2022-09-23T19:15:22.637Z,16.45
2022-09-23T19:17:50.256Z,16.53
2022-09-23T19:20:17.690Z,16.56
2022-09-23T19:22:48.088Z,16.24
2022-09-23T19:25:17.402Z,16.11
2022-09-23T19:27:44.976Z,15.91
2022-09-23T19:30:13.466Z,16.11
2022-09-23T19:32:44.577Z,16.27
2022-09-23T19:35:15.867Z,16.48
2022-09-23T19:37:46.043Z,16.19
2022-09-23T19:40:13.891Z,16.39
2022-09-23T19:42:43.102Z,16.36
2022-09-23T19:45:10.698Z,16.30
2022-09-23T19:47:38.178Z,16.29
2022-09-23T19:54:10.507Z,15.97
2022-09-23T19:56:38.693Z,15.72
2022-09-23T19:59:07.461Z,15.86
2022-09-23T20:01:36.031Z,15.87
2022-09-23T20:04:05.651Z,15.80
2022-09-23T20:06:38.008Z,15.91
2022-09-23T20:09:06.042Z,15.91
2022-09-23T20:11:34.582Z,15.80
2022-09-23T20:14:04.930Z,15.79
2022-09-23T20:16:36.877Z,15.85
2022-09-23T20:19:06.070Z,15.63
2022-09-23T20:21:35.317Z,15.23
2022-09-23T20:24:06.475Z,15.41
2022-09-23T20:26:54.005Z,15.60
2022-09-23T20:29:21.733Z,15.68
2022-09-23T20:31:49.307Z,15.62
2022-09-23T20:34:16.828Z,15.37
2022-09-23T20:36:44.262Z,15.43
2022-09-23T20:39:11.742Z,15.55
2022-09-23T20:41:39.874Z,15.45
2022-09-23T20:44:12.661Z,15.31
2022-09-23T20:46:48.192Z,15.11
2022-09-23T20:49:17.947Z,15.27
2022-09-23T20:51:48.835Z,15.31
2022-09-23T20:54:21.186Z,15.16
2022-09-23T20:56:48.683Z,15.22
2022-09-23T20:59:17.738Z,15.33
2022-09-23T21:01:47.455Z,15.59
2022-09-23T21:04:15.486Z,15.13
2022-09-23T21:06:42.833Z,15.02
2022-09-23T21:09:10.168Z,15.10
2022-09-23T21:11:38.141Z,14.67
2022-09-23T21:14:05.755Z,14.46
2022-09-23T21:16:33.126Z,14.40
2022-09-23T21:19:03.081Z,14.59
2022-09-23T21:21:30.701Z,14.93
2022-09-23T21:24:17.143Z,15.10
2022-09-23T21:26:47.873Z,14.94
2022-09-23T21:29:15.261Z,14.85
2022-09-23T21:31:42.956Z,14.81
2022-09-23T21:34:12.578Z,14.76
2022-09-23T21:36:44.057Z,14.74
2022-09-23T21:39:12.636Z,14.62
2022-09-23T21:41:40.388Z,14.52
2022-09-23T21:44:08.421Z,14.55
2022-09-23T21:46:36.781Z,14.58
2022-09-23T21:49:05.237Z,14.17
2022-09-23T21:51:40.219Z,14.30
2022-09-23T21:54:15.445Z,14.17
2022-09-23T21:56:44.342Z,14.29
2022-09-23T21:59:12.104Z,14.28
2022-09-23T22:01:44.844Z,14.47
2022-09-23T22:04:18.631Z,14.49
2022-09-23T22:06:48.719Z,14.48
2022-09-23T22:09:20.978Z,14.52
2022-09-23T22:12:08.422Z,14.55
2022-09-23T22:14:36.874Z,14.71
2022-09-23T22:17:10.283Z,14.56
2022-09-23T22:19:45.834Z,14.41
2022-09-23T22:22:17.677Z,14.64
2022-09-23T22:24:47.351Z,14.10
2022-09-23T22:27:18.685Z,14.07
2022-09-23T22:30:05.899Z,14.10
2022-09-23T22:32:40.422Z,14.26
2022-09-23T22:35:14.061Z,14.45
2022-09-23T22:37:41.311Z,14.48
2022-09-23T22:40:14.878Z,14.37
2022-09-23T22:42:43.325Z,14.46
2022-09-23T22:45:12.699Z,14.60
2022-09-23T22:47:44.006Z,14.49
2022-09-23T22:50:13.797Z,14.23
2022-09-23T22:52:41.190Z,13.60
2022-09-23T22:55:09.536Z,13.63
2022-09-23T22:57:37.185Z,13.82
2022-09-23T23:00:07.860Z,13.90
2022-09-23T23:02:35.192Z,13.88
2022-09-23T23:05:02.574Z,13.90
2022-09-23T23:07:29.779Z,13.85
2022-09-23T23:09:57.505Z,13.86
2022-09-23T23:12:24.748Z,13.86
2022-09-23T23:14:54.785Z,14.00
2022-09-23T23:17:21.983Z,14.05
2022-09-23T23:19:50.487Z,14.08
2022-09-23T23:22:17.822Z,14.15
2022-09-23T23:24:45.285Z,14.10
2022-09-23T23:27:15.199Z,14.14
2022-09-23T23:29:42.474Z,14.19
2022-09-23T23:32:15.581Z,14.30
2022-09-23T23:34:43.360Z,14.10
2022-09-23T23:37:10.907Z,13.98
2022-09-23T23:39:38.212Z,13.81
2022-09-23T23:42:05.761Z,13.88
2022-09-23T23:44:34.306Z,13.95
2022-09-23T23:47:01.786Z,14.11
2022-09-23T23:49:29.060Z,14.06
2022-09-23T23:51:56.544Z,14.10
2022-09-23T23:54:23.839Z,13.87
2022-09-23T23:56:51.206Z,13.76
2022-09-23T23:59:20.775Z,13.55
